Time;durP1;ratioP1;P1;durP2;ratioP2;P2;SDS_P1;SDS_P2;PMS_P1;PMS_P2;Temp;Humidity;BMP_temperature;BMP_pressure;BME280_temperature;BME280_humidity;BME280_pressure;Samples;Min_cycle;Max_cycle;Signal;HPM_P1;HPM_P2
2023/11/26 00:02:11;;;;;;;33.78;19.75;;;-0.90;97.90;;;;;;5096598;28;20076;-84
2023/11/26 00:04:37;;;;;;;36.42;19.27;;;-0.90;97.80;;;;;;5108770;28;20039;-83
2023/11/26 00:07:03;;;;;;;40.87;22.00;;;-0.90;97.80;;;;;;5112340;28;20031;-82
2023/11/26 00:09:30;;;;;;;33.60;18.92;;;-0.90;97.90;;;;;;5113389;28;20035;-87
2023/11/26 00:11:56;;;;;;;30.60;18.77;;;-0.90;98.30;;;;;;5135047;28;20020;-86
2023/11/26 00:14:22;;;;;;;41.90;20.23;;;-0.90;98.50;;;;;;5111714;28;20028;-87
2023/11/26 00:16:48;;;;;;;31.83;19.83;;;-0.90;98.60;;;;;;5113757;28;20488;-85
2023/11/26 00:19:16;;;;;;;34.22;19.98;;;-0.90;98.60;;;;;;5104792;28;20096;-88
2023/11/26 00:21:43;;;;;;;32.53;19.38;;;-0.90;98.40;;;;;;5115434;28;20032;-86
2023/11/26 00:24:09;;;;;;;38.80;19.25;;;-0.90;98.40;;;;;;5118243;28;20019;-86
2023/11/26 00:26:35;;;;;;;30.10;16.23;;;-0.90;98.40;;;;;;5122127;28;20039;-82
2023/11/26 00:29:01;;;;;;;28.25;15.30;;;-0.90;98.60;;;;;;5136226;28;20008;-83
2023/11/26 00:31:27;;;;;;;25.20;18.10;;;-0.90;98.90;;;;;;5137120;28;20032;-82
2023/11/26 00:33:53;;;;;;;31.52;18.92;;;-0.90;99.00;;;;;;5128680;28;20027;-81
2023/11/26 00:36:21;;;;;;;31.00;21.30;;;-1.00;98.80;;;;;;5135489;28;20013;-84
2023/11/26 00:38:47;;;;;;;32.85;19.38;;;-1.00;98.70;;;;;;5100874;28;20066;-85
2023/11/26 00:41:13;;;;;;;28.77;18.10;;;-1.00;98.50;;;;;;5116961;28;20035;-85
2023/11/26 00:43:39;;;;;;;28.25;17.08;;;-0.90;98.40;;;;;;5119673;28;20052;-83
2023/11/26 00:46:05;;;;;;;31.77;19.08;;;-1.00;98.50;;;;;;5131238;28;20063;-85
2023/11/26 00:48:31;;;;;;;34.15;18.77;;;-1.00;98.40;;;;;;5128581;28;20024;-84
2023/11/26 00:50:57;;;;;;;29.98;15.98;;;-1.00;98.20;;;;;;5111226;28;20111;-83
2023/11/26 00:53:24;;;;;;;26.98;16.73;;;-1.00;98.20;;;;;;5117927;28;20038;-83
2023/11/26 00:55:50;;;;;;;26.48;17.65;;;-1.00;98.50;;;;;;5118308;28;20031;-84
2023/11/26 00:58:16;;;;;;;29.95;17.80;;;-0.90;98.50;;;;;;5120760;28;20012;-83
2023/11/26 01:00:42;;;;;;;27.25;16.83;;;-1.00;98.30;;;;;;5122179;28;20042;-83
2023/11/26 01:03:08;;;;;;;28.25;17.83;;;-0.90;98.30;;;;;;5129233;28;20020;-84
2023/11/26 01:05:34;;;;;;;29.23;17.63;;;-0.90;98.10;;;;;;5118458;28;20478;-84
2023/11/26 01:08:03;;;;;;;29.50;17.60;;;-0.90;98.10;;;;;;5118770;28;20030;-87
2023/11/26 01:10:29;;;;;;;29.95;17.38;;;-0.90;98.20;;;;;;5118039;28;20030;-85
2023/11/26 01:12:55;;;;;;;26.92;16.30;;;-0.90;98.20;;;;;;5091473;28;20020;-85
2023/11/26 01:15:21;;;;;;;27.30;16.55;;;-0.90;98.10;;;;;;5110801;28;20051;-85
2023/11/26 01:17:50;;;;;;;26.27;16.60;;;-0.90;98.10;;;;;;5118560;28;20020;-84
2023/11/26 01:20:16;;;;;;;25.90;17.25;;;-0.90;98.00;;;;;;5119769;28;20047;-85
2023/11/26 01:22:42;;;;;;;26.25;15.00;;;-0.90;97.90;;;;;;5117199;28;20015;-86
2023/11/26 01:25:08;;;;;;;30.08;17.75;;;-0.90;98.10;;;;;;5122835;27;20099;-86
2023/11/26 01:27:34;;;;;;;32.80;18.88;;;-0.90;98.20;;;;;;5101777;28;20481;-84
2023/11/26 01:30:00;;;;;;;30.58;18.35;;;-1.00;98.00;;;;;;5114929;28;20111;-84
2023/11/26 01:32:26;;;;;;;25.77;16.40;;;-1.00;97.90;;;;;;5117859;28;20031;-85
2023/11/26 01:34:52;;;;;;;26.13;15.68;;;-1.00;98.00;;;;;;5099406;28;20020;-85
2023/11/26 01:37:19;;;;;;;27.33;15.48;;;-1.00;98.30;;;;;;5116405;28;20019;-83
2023/11/26 01:39:45;;;;;;;34.08;18.02;;;-1.00;98.80;;;;;;5105260;28;20023;-85
2023/11/26 01:42:13;;;;;;;32.40;18.17;;;-1.00;99.00;;;;;;5117396;28;20034;-84
2023/11/26 01:44:39;;;;;;;34.10;19.20;;;-1.00;98.80;;;;;;5116591;28;20043;-87
2023/11/26 01:47:07;;;;;;;35.33;18.02;;;-1.00;98.90;;;;;;5088630;28;20031;-84
2023/11/26 01:49:34;;;;;;;;;;;-1.00;98.80;;;;;;5116746;28;20011;-85
2023/11/26 01:52:01;;;;;;;27.42;15.68;;;-1.00;98.80;;;;;;5116486;28;19912;-84
2023/11/26 01:54:29;;;;;;;28.83;17.00;;;-1.00;99.20;;;;;;5098360;28;20423;-85
2023/11/26 01:56:57;;;;;;;29.88;16.88;;;-1.10;99.40;;;;;;5118179;28;20016;-85
2023/11/26 01:59:24;;;;;;;32.58;19.15;;;-1.10;99.40;;;;;;5111015;28;20020;-84
2023/11/26 02:01:50;;;;;;;28.98;17.30;;;-1.10;99.20;;;;;;5128720;28;20031;-86
2023/11/26 02:04:15;;;;;;;29.35;19.23;;;-1.10;99.10;;;;;;5117204;28;20114;-85
2023/11/26 02:06:41;;;;;;;29.15;17.75;;;-1.10;98.90;;;;;;5115494;28;20028;-85
2023/11/26 02:09:10;;;;;;;31.67;19.80;;;-1.10;98.90;;;;;;5118302;28;20011;-85
2023/11/26 02:11:37;;;;;;;31.38;16.55;;;-1.10;98.90;;;;;;5116122;28;20062;-85
2023/11/26 02:14:03;;;;;;;31.70;20.70;;;-1.10;98.90;;;;;;5115198;28;20023;-86
2023/11/26 02:16:29;;;;;;;30.80;20.48;;;-1.10;98.90;;;;;;5097724;28;20077;-85
2023/11/26 02:18:55;;;;;;;34.95;19.75;;;-1.10;98.70;;;;;;5118412;27;20023;-85
2023/11/26 02:21:21;;;;;;;30.13;19.27;;;-1.20;98.60;;;;;;5118313;27;20046;-86
2023/11/26 02:23:47;;;;;;;34.83;20.83;;;-1.20;98.50;;;;;;5115782;28;20012;-86
2023/11/26 02:26:14;;;;;;;29.02;18.45;;;-1.20;98.40;;;;;;5097057;28;20096;-84
2023/11/26 02:28:43;;;;;;;29.55;20.77;;;-1.20;98.50;;;;;;5096973;28;20103;-85
2023/11/26 02:31:10;;;;;;;29.13;18.65;;;-1.10;98.70;;;;;;5105514;28;20023;-84
2023/11/26 02:33:36;;;;;;;33.97;19.90;;;-1.20;98.80;;;;;;5099636;28;20136;-84
2023/11/26 02:36:03;;;;;;;34.28;19.30;;;-1.10;98.80;;;;;;5117590;28;20043;-84
2023/11/26 02:38:29;;;;;;;32.85;19.60;;;-1.20;98.60;;;;;;5087076;28;20045;-85
2023/11/26 02:40:55;;;;;;;33.67;19.90;;;-1.20;98.80;;;;;;5092660;28;20027;-85
2023/11/26 02:43:21;;;;;;;33.50;19.15;;;-1.20;98.70;;;;;;5114600;28;20126;-84
2023/11/26 02:45:50;;;;;;;35.63;20.58;;;-1.20;98.50;;;;;;5090711;28;20048;-85
2023/11/26 02:48:19;;;;;;;33.63;20.88;;;-1.20;98.40;;;;;;5112195;28;20080;-85
2023/11/26 02:50:45;;;;;;;34.95;21.63;;;-1.20;98.20;;;;;;5115449;28;20024;-85
2023/11/26 02:53:10;;;;;;;38.17;21.67;;;-1.20;98.00;;;;;;5110631;28;20150;-85
2023/11/26 02:55:36;;;;;;;33.80;22.73;;;-1.20;98.10;;;;;;5110106;28;20110;-86
2023/11/26 02:58:03;;;;;;;37.05;22.40;;;-1.20;98.10;;;;;;5114417;28;20503;-87
2023/11/26 03:00:29;;;;;;;35.83;22.75;;;-1.20;98.00;;;;;;5100316;28;20061;-86
2023/11/26 03:02:55;;;;;;;39.83;24.48;;;-1.10;98.00;;;;;;5116937;28;20022;-85
2023/11/26 03:05:21;;;;;;;40.63;21.65;;;-1.20;98.00;;;;;;5096845;28;20028;-86
2023/11/26 03:07:57;;;;;;;34.08;20.40;;;-1.20;97.90;;;;;;5115387;28;20018;-85
2023/11/26 03:13:20;;;;;;;34.38;21.35;;;-1.20;97.80;;;;;;5110933;28;20027;-85
2023/11/26 03:15:49;;;;;;;42.25;22.67;;;-1.20;97.80;;;;;;5108253;28;20043;-84
2023/11/26 03:18:17;;;;;;;36.45;21.30;;;-1.20;97.80;;;;;;5113957;28;20024;-85
2023/11/26 03:20:43;;;;;;;37.10;20.55;;;-1.20;97.80;;;;;;5092474;28;20035;-84
2023/11/26 03:23:10;;;;;;;38.15;22.25;;;-1.20;97.80;;;;;;5120266;28;20020;-85
2023/11/26 03:25:36;;;;;;;41.50;23.43;;;-1.20;97.80;;;;;;5123505;28;20095;-83
2023/11/26 03:28:04;;;;;;;32.95;21.92;;;-1.30;97.90;;;;;;5109324;28;20023;-83
2023/11/26 03:30:31;;;;;;;34.38;21.08;;;-1.30;97.80;;;;;;5109655;28;20020;-84
2023/11/26 03:32:57;;;;;;;40.35;22.08;;;-1.30;97.90;;;;;;5089222;28;20475;-84
2023/11/26 03:35:24;;;;;;;33.08;20.95;;;-1.30;97.90;;;;;;5109819;28;20026;-83
2023/11/26 03:37:54;;;;;;;31.10;20.63;;;-1.40;97.90;;;;;;5126951;28;20031;-85
2023/11/26 03:40:20;;;;;;;37.85;22.92;;;-1.40;97.90;;;;;;5096229;28;20030;-83
2023/11/26 03:42:47;;;;;;;30.33;17.03;;;-1.40;97.90;;;;;;5110275;28;20081;-83
2023/11/26 03:45:13;;;;;;;37.63;21.05;;;-1.40;98.00;;;;;;5116977;28;20062;-83
2023/11/26 03:47:39;;;;;;;36.88;21.92;;;-1.40;98.00;;;;;;5125467;28;20024;-83
2023/11/26 03:50:11;;;;;;;43.53;23.40;;;-1.40;98.00;;;;;;5111777;28;20024;-83
2023/11/26 03:52:38;;;;;;;34.05;20.50;;;-1.40;98.00;;;;;;5129436;28;20028;-84
2023/11/26 03:55:07;;;;;;;35.33;20.20;;;-1.40;98.00;;;;;;5137254;28;20024;-84
2023/11/26 03:57:33;;;;;;;29.25;18.85;;;-1.40;97.90;;;;;;5123832;28;20009;-83
2023/11/26 04:00:01;;;;;;;39.42;22.58;;;-1.40;97.90;;;;;;5096946;28;20050;-84
2023/11/26 04:02:27;;;;;;;34.17;20.17;;;-1.40;97.90;;;;;;5111061;28;20545;-84
2023/11/26 04:04:54;;;;;;;28.13;18.52;;;-1.40;98.00;;;;;;5111326;28;20055;-82
2023/11/26 04:07:20;;;;;;;28.40;16.20;;;-1.40;97.90;;;;;;5100980;28;20490;-82
2023/11/26 04:09:47;;;;;;;28.52;17.17;;;-1.40;97.90;;;;;;5129231;28;20034;-83
2023/11/26 04:12:13;;;;;;;30.23;17.77;;;-1.40;98.00;;;;;;5136537;28;20003;-82
2023/11/26 04:14:55;;;;;;;32.08;16.50;;;-1.40;97.90;;;;;;5121210;28;20039;-83
2023/11/26 04:17:24;;;;;;;23.58;14.73;;;-1.40;97.80;;;;;;5113779;28;20423;-82
2023/11/26 04:19:51;;;;;;;28.70;16.15;;;-1.40;97.70;;;;;;5105516;28;20377;-83
2023/11/26 04:22:22;;;;;;;28.15;17.38;;;-1.40;97.80;;;;;;5103983;28;20012;-83
2023/11/26 04:24:49;;;;;;;27.92;15.88;;;-1.40;97.70;;;;;;5112605;28;20024;-84
2023/11/26 04:27:16;;;;;;;28.43;16.40;;;-1.40;97.80;;;;;;5107435;28;20022;-82
2023/11/26 04:29:42;;;;;;;24.70;13.93;;;-1.40;97.80;;;;;;5112567;28;20255;-83
2023/11/26 04:32:08;;;;;;;23.17;13.60;;;-1.40;97.70;;;;;;5107682;28;20022;-83
2023/11/26 04:34:34;;;;;;;25.73;14.15;;;-1.40;97.60;;;;;;5085217;28;20028;-84
2023/11/26 04:37:00;;;;;;;26.98;14.57;;;-1.40;97.50;;;;;;5093066;28;20032;-88
2023/11/26 04:39:26;;;;;;;25.92;16.85;;;-1.40;97.40;;;;;;5107300;28;20031;-85
2023/11/26 04:41:52;;;;;;;25.80;14.88;;;-1.30;97.30;;;;;;5131885;28;20059;-85
2023/11/26 04:44:19;;;;;;;28.98;16.17;;;-1.40;97.30;;;;;;5133914;28;20044;-86
2023/11/26 04:46:48;;;;;;;23.40;14.17;;;-1.40;97.60;;;;;;5132203;28;20031;-85
2023/11/26 04:49:15;;;;;;;27.02;16.15;;;-1.40;97.30;;;;;;5133017;28;20039;-86
2023/11/26 04:51:41;;;;;;;24.33;14.80;;;-1.40;97.40;;;;;;5113594;28;20034;-84
2023/11/26 04:54:11;;;;;;;25.67;15.07;;;-1.40;97.40;;;;;;5092443;28;20484;-85
2023/11/26 04:56:38;;;;;;;27.38;15.88;;;-1.40;97.40;;;;;;5114415;28;20393;-86
2023/11/26 04:59:04;;;;;;;20.67;10.38;;;-1.30;97.40;;;;;;5116500;28;20072;-83
2023/11/26 05:01:31;;;;;;;20.83;12.70;;;-1.30;97.30;;;;;;5096320;28;20091;-83
2023/11/26 05:03:58;;;;;;;22.03;12.10;;;-1.30;97.20;;;;;;5117855;28;20023;-84
2023/11/26 05:06:24;;;;;;;19.80;13.07;;;-1.30;97.10;;;;;;5109442;28;20084;-84
2023/11/26 05:08:50;;;;;;;26.63;13.43;;;-1.30;97.20;;;;;;5127854;28;20053;-85
2023/11/26 05:11:16;;;;;;;24.48;14.65;;;-1.30;97.10;;;;;;5116917;28;20473;-85
2023/11/26 05:13:42;;;;;;;22.90;14.10;;;-1.30;97.00;;;;;;5113295;28;20438;-85
2023/11/26 05:16:08;;;;;;;23.92;14.18;;;-1.30;97.00;;;;;;5112937;28;20051;-85
2023/11/26 05:18:34;;;;;;;22.38;14.20;;;-1.30;97.00;;;;;;5113303;28;20018;-86
2023/11/26 05:21:02;;;;;;;20.63;12.57;;;-1.30;97.10;;;;;;5109203;28;20094;-85
2023/11/26 05:23:27;;;;;;;24.17;14.40;;;-1.30;97.10;;;;;;5098718;28;20436;-85
2023/11/26 05:25:53;;;;;;;23.65;14.70;;;-1.20;97.00;;;;;;5116445;28;20039;-84
2023/11/26 05:28:19;;;;;;;24.13;15.30;;;-1.30;96.90;;;;;;5117544;28;20102;-84
2023/11/26 05:30:45;;;;;;;21.42;14.90;;;-1.30;97.00;;;;;;5108954;28;20036;-86
2023/11/26 05:33:11;;;;;;;27.85;17.05;;;-1.30;97.00;;;;;;5129239;28;20038;-86
2023/11/26 05:35:37;;;;;;;22.52;16.70;;;-1.30;96.80;;;;;;5119284;28;20103;-86
2023/11/26 05:38:06;;;;;;;30.00;16.33;;;-1.30;96.90;;;;;;5120218;28;20012;-85
2023/11/26 05:40:31;;;;;;;26.17;17.42;;;-1.30;96.20;;;;;;5088198;28;20024;-85
2023/11/26 05:42:57;;;;;;;33.65;19.38;;;-1.40;96.50;;;;;;5117043;28;20382;-86
2023/11/26 05:45:23;;;;;;;29.10;18.38;;;-1.50;96.70;;;;;;5116922;28;20497;-85
2023/11/26 05:47:49;;;;;;;23.17;15.30;;;-1.50;96.90;;;;;;5118226;28;20066;-85
2023/11/26 05:50:17;;;;;;;26.50;15.85;;;-1.50;96.70;;;;;;5117654;28;20054;-87
2023/11/26 05:52:43;;;;;;;28.38;17.35;;;-1.60;97.20;;;;;;5093504;28;20016;-86
2023/11/26 05:55:10;;;;;;;25.17;16.30;;;-1.60;97.20;;;;;;5107886;28;20034;-86
2023/11/26 05:57:36;;;;;;;30.77;18.42;;;-1.60;97.30;;;;;;5117850;28;20042;-85
2023/11/26 06:00:04;;;;;;;22.33;16.38;;;-1.60;96.80;;;;;;5089979;28;20153;-86
2023/11/26 06:02:30;;;;;;;27.67;17.52;;;-1.60;96.90;;;;;;5110195;28;20064;-82
2023/11/26 06:04:56;;;;;;;32.05;16.65;;;-1.60;96.90;;;;;;5107628;28;20476;-83
2023/11/26 06:07:22;;;;;;;23.50;16.38;;;-1.60;96.90;;;;;;5107305;28;20110;-83
2023/11/26 06:09:48;;;;;;;33.42;16.52;;;-1.70;97.20;;;;;;5115721;28;20024;-82
2023/11/26 06:12:14;;;;;;;26.45;16.77;;;-1.60;97.70;;;;;;5088763;28;20024;-82
2023/11/26 06:14:40;;;;;;;28.70;17.50;;;-1.70;97.70;;;;;;5115698;28;20158;-84
2023/11/26 06:17:06;;;;;;;29.90;17.58;;;-1.60;97.70;;;;;;5105654;28;20058;-83
2023/11/26 06:19:32;;;;;;;30.50;18.75;;;-1.60;97.60;;;;;;5116777;28;20023;-83
2023/11/26 06:21:57;;;;;;;39.20;20.05;;;-1.60;97.60;;;;;;5098398;28;20028;-83
2023/11/26 06:24:24;;;;;;;34.95;19.05;;;-1.60;97.50;;;;;;5115558;28;20019;-84
2023/11/26 06:26:53;;;;;;;39.60;22.03;;;-1.60;97.60;;;;;;5113318;28;20032;-84
2023/11/26 06:29:18;;;;;;;33.28;19.70;;;-1.60;97.50;;;;;;5114866;28;20176;-85
2023/11/26 06:31:44;;;;;;;33.40;19.48;;;-1.60;97.50;;;;;;5114282;28;20019;-85
2023/11/26 06:34:11;;;;;;;34.15;20.05;;;-1.60;97.50;;;;;;5109243;28;20084;-83
2023/11/26 06:36:37;;;;;;;36.28;20.80;;;-1.50;97.80;;;;;;5076359;28;20051;-83
2023/11/26 06:39:06;;;;;;;37.85;22.85;;;-1.60;97.80;;;;;;5114382;28;20024;-83
2023/11/26 06:41:32;;;;;;;37.85;20.75;;;-1.50;97.70;;;;;;5103618;28;20046;-82
2023/11/26 06:43:59;;;;;;;40.72;22.58;;;-1.60;97.70;;;;;;5121888;28;20047;-83
2023/11/26 06:46:27;;;;;;;34.53;23.20;;;-1.60;97.70;;;;;;5115701;28;20373;-83
2023/11/26 06:48:53;;;;;;;38.13;23.13;;;-1.60;97.60;;;;;;5114497;28;20020;-83
2023/11/26 06:51:20;;;;;;;37.97;22.10;;;-1.60;97.60;;;;;;5098428;28;20024;-84
2023/11/26 06:53:47;;;;;;;36.67;22.65;;;-1.60;97.70;;;;;;5114126;28;20020;-83
2023/11/26 06:56:13;;;;;;;;;;;-1.60;97.70;;;;;;5114313;28;20016;-82
2023/11/26 06:58:43;;;;;;;30.65;20.48;;;-1.60;97.80;;;;;;5105171;28;19907;-84
2023/11/26 07:01:10;;;;;;;31.33;20.73;;;-1.70;97.90;;;;;;5109581;28;20030;-83
2023/11/26 07:03:36;;;;;;;35.53;19.08;;;-1.60;97.90;;;;;;5108678;28;20023;-84
2023/11/26 07:06:05;;;;;;;28.00;18.50;;;-1.60;98.20;;;;;;5107357;28;20031;-81
2023/11/26 07:08:31;;;;;;;36.08;21.27;;;-1.60;97.90;;;;;;5090137;28;20043;-82
2023/11/26 07:10:58;;;;;;;28.70;19.98;;;-1.60;97.80;;;;;;5107582;28;20065;-85
2023/11/26 07:13:25;;;;;;;36.58;22.73;;;-1.50;97.90;;;;;;5106465;28;20099;-83
2023/11/26 07:15:51;;;;;;;37.43;20.80;;;-1.60;97.90;;;;;;5129340;28;20027;-82
2023/11/26 07:18:18;;;;;;;39.78;25.00;;;-1.50;98.00;;;;;;5132533;28;20027;-82
2023/11/26 07:20:45;;;;;;;44.10;26.67;;;-1.50;98.10;;;;;;5106721;28;20057;-84
2023/11/26 07:23:11;;;;;;;39.38;21.92;;;-1.50;98.20;;;;;;5124074;28;20087;-83
2023/11/26 07:25:39;;;;;;;41.65;24.27;;;-1.50;98.30;;;;;;5127293;28;20042;-82
2023/11/26 07:28:08;;;;;;;35.45;22.52;;;-1.40;98.20;;;;;;5132635;28;20079;-83
2023/11/26 07:30:35;;;;;;;33.28;21.27;;;-1.40;98.10;;;;;;5132296;28;20099;-82
2023/11/26 07:33:01;;;;;;;35.40;19.08;;;-1.30;98.50;;;;;;5109813;28;20554;-84
2023/11/26 07:35:27;;;;;;;37.08;25.10;;;-1.30;98.80;;;;;;5108231;27;20035;-85
2023/11/26 07:37:53;;;;;;;45.78;24.73;;;-1.20;98.80;;;;;;5089376;28;20084;-85
2023/11/26 07:40:19;;;;;;;29.95;20.70;;;-1.20;98.30;;;;;;5106321;28;20492;-84
2023/11/26 07:42:44;;;;;;;40.55;27.50;;;-1.20;98.50;;;;;;5095853;28;20019;-83
2023/11/26 07:45:14;;;;;;;47.47;27.30;;;-1.30;98.50;;;;;;5117634;28;20108;-83
2023/11/26 07:47:39;;;;;;;44.78;26.55;;;-1.20;98.30;;;;;;5119196;28;20051;-86
2023/11/26 07:50:08;;;;;;;35.90;20.90;;;-1.20;98.10;;;;;;5101125;28;20034;-84
2023/11/26 07:52:36;;;;;;;39.72;23.92;;;-1.20;98.00;;;;;;5110245;28;20484;-83
2023/11/26 07:55:04;;;;;;;37.90;22.23;;;-1.20;98.10;;;;;;5115249;28;20022;-83
2023/11/26 07:57:31;;;;;;;41.38;23.85;;;-1.20;97.90;;;;;;5109837;28;20018;-84
2023/11/26 07:59:58;;;;;;;35.83;22.60;;;-1.20;98.00;;;;;;5093952;28;20393;-85
2023/11/26 08:02:24;;;;;;;36.58;25.98;;;-1.20;98.00;;;;;;5095976;28;20115;-85
2023/11/26 08:04:59;;;;;;;42.28;24.25;;;-1.10;98.00;;;;;;5110867;28;20023;-86
2023/11/26 08:07:26;;;;;;;39.97;24.00;;;-1.10;97.60;;;;;;5105513;28;20438;-85
2023/11/26 08:09:53;;;;;;;39.55;23.27;;;-1.10;97.90;;;;;;5097969;28;20484;-86
2023/11/26 08:12:24;;;;;;;36.92;25.33;;;-1.10;97.60;;;;;;5114581;28;20027;-84
2023/11/26 08:14:53;;;;;;;38.13;24.33;;;-1.10;97.80;;;;;;5123541;28;20024;-85
2023/11/26 08:17:19;;;;;;;44.00;25.02;;;-1.10;97.60;;;;;;5120939;28;20491;-85
2023/11/26 08:19:45;;;;;;;41.58;24.48;;;-1.10;97.60;;;;;;5114752;28;20084;-86
2023/11/26 08:22:13;;;;;;;43.83;25.17;;;-1.10;97.50;;;;;;5096711;28;20380;-86
2023/11/26 08:24:42;;;;;;;40.63;23.77;;;-1.00;97.90;;;;;;5114336;28;20019;-85
2023/11/26 08:27:09;;;;;;;48.17;31.40;;;-1.00;98.00;;;;;;5097314;28;20036;-85
2023/11/26 08:29:36;;;;;;;;;;;-1.00;97.90;;;;;;5113790;28;20073;-84
2023/11/26 08:32:05;;;;;;;44.88;26.00;;;-1.10;97.30;;;;;;5107768;28;19907;-85
2023/11/26 08:34:39;;;;;;;38.33;23.05;;;-1.20;97.20;;;;;;5081782;28;20024;-84
2023/11/26 08:37:07;;;;;;;39.13;24.48;;;-1.20;97.60;;;;;;5099561;28;20024;-85
2023/11/26 08:39:40;;;;;;;41.17;24.35;;;-1.20;97.80;;;;;;5113252;28;20069;-85
2023/11/26 08:42:08;;;;;;;35.72;23.35;;;-1.20;97.90;;;;;;5111140;28;20092;-87
2023/11/26 08:44:34;;;;;;;41.95;24.92;;;-1.10;98.00;;;;;;5086168;28;20406;-88
2023/11/26 08:47:01;;;;;;;37.28;24.10;;;-1.10;98.00;;;;;;5105964;28;20027;-87
2023/11/26 08:49:28;;;;;;;36.47;18.55;;;-1.00;97.80;;;;;;5102285;28;20028;-87
2023/11/26 08:51:57;;;;;;;38.77;23.40;;;-1.00;97.80;;;;;;5114531;28;20031;-87
2023/11/26 08:54:23;;;;;;;36.47;25.25;;;-1.00;97.30;;;;;;5099969;28;20422;-86
2023/11/26 08:56:52;;;;;;;29.90;17.05;;;-1.00;97.50;;;;;;5096793;28;20030;-87
2023/11/26 08:59:18;;;;;;;27.02;16.02;;;-1.00;97.60;;;;;;5091424;28;20385;-87
2023/11/26 09:01:48;;;;;;;41.30;24.48;;;-1.10;97.80;;;;;;5088811;28;20020;-87
2023/11/26 09:04:14;;;;;;;39.15;24.20;;;-1.20;97.80;;;;;;5123662;28;20108;-85
2023/11/26 09:06:39;;;;;;;47.13;28.05;;;-1.20;97.70;;;;;;5129147;28;20497;-85
2023/11/26 09:09:07;;;;;;;48.42;27.83;;;-1.20;97.80;;;;;;5121679;28;20069;-85
2023/11/26 09:11:32;;;;;;;33.80;19.95;;;-1.20;97.50;;;;;;5120217;28;20027;-84
2023/11/26 09:13:58;;;;;;;46.65;26.27;;;-1.20;97.70;;;;;;5123669;28;20032;-85
2023/11/26 09:16:25;;;;;;;40.78;22.77;;;-1.30;97.90;;;;;;5126985;28;20079;-83
2023/11/26 09:18:51;;;;;;;40.92;24.35;;;-1.20;97.80;;;;;;5124200;27;20023;-86
2023/11/26 09:21:18;;;;;;;44.55;29.10;;;-1.30;97.80;;;;;;5123953;28;20012;-87
2023/11/26 09:23:45;;;;;;;50.30;29.90;;;-1.30;97.50;;;;;;5129304;28;20078;-87
2023/11/26 09:26:11;;;;;;;46.38;24.95;;;-1.30;97.50;;;;;;5121712;28;20036;-86
2023/11/26 09:28:37;;;;;;;35.47;23.43;;;-1.30;97.60;;;;;;5125140;27;20111;-85
2023/11/26 09:31:05;;;;;;;38.97;23.25;;;-1.30;97.90;;;;;;5120441;27;20257;-85
2023/11/26 09:33:31;;;;;;;40.30;26.55;;;-1.30;98.00;;;;;;5116464;27;20019;-92
2023/11/26 09:35:58;;;;;;;35.13;23.70;;;-1.40;97.90;;;;;;5094587;28;20020;-90
2023/11/26 09:38:24;;;;;;;45.10;22.67;;;-1.40;97.90;;;;;;5095336;28;20045;-90
2023/11/26 09:40:53;;;;;;;39.92;23.73;;;-1.40;97.90;;;;;;5122860;27;20023;-92
2023/11/26 09:43:20;;;;;;;37.42;22.30;;;-1.40;97.90;;;;;;5102360;28;20027;-87
2023/11/26 09:45:46;;;;;;;38.40;23.98;;;-1.40;98.20;;;;;;5092279;28;20031;-87
2023/11/26 09:48:15;;;;;;;39.38;23.08;;;-1.40;98.20;;;;;;5129814;28;20479;-87
2023/11/26 09:50:42;;;;;;;40.03;22.23;;;-1.40;98.20;;;;;;5107523;28;20084;-88
2023/11/26 09:53:09;;;;;;;34.80;19.67;;;-1.30;98.20;;;;;;5112196;28;20062;-88
2023/11/26 09:55:39;;;;;;;32.03;16.33;;;-1.30;98.20;;;;;;5112537;28;20081;-89
2023/11/26 09:58:05;;;;;;;46.60;25.05;;;-1.30;98.10;;;;;;5117844;27;20020;-85
2023/11/26 10:00:31;;;;;;;34.85;20.02;;;-1.40;98.00;;;;;;5102392;28;20043;-84
2023/11/26 10:03:02;;;;;;;44.13;26.33;;;-1.40;97.90;;;;;;5106990;28;20034;-84
2023/11/26 10:05:28;;;;;;;38.65;21.95;;;-1.40;97.80;;;;;;5099354;28;20416;-87
2023/11/26 10:07:54;;;;;;;36.70;23.00;;;-1.30;97.80;;;;;;5079627;28;20023;-85
2023/11/26 10:10:23;;;;;;;36.97;21.48;;;-1.30;97.90;;;;;;5115539;27;20112;-85
2023/11/26 10:13:00;;;;;;;43.65;25.08;;;-1.30;98.00;;;;;;5114470;27;20031;-85
2023/11/26 10:15:31;;;;;;;47.50;27.75;;;-1.30;97.70;;;;;;5107456;28;20389;-85
2023/11/26 10:17:58;;;;;;;38.75;21.80;;;-1.30;97.70;;;;;;5114181;28;20028;-86
2023/11/26 10:20:24;;;;;;;36.28;21.25;;;-1.20;97.70;;;;;;5095710;28;20389;-85
2023/11/26 10:22:50;;;;;;;34.80;19.77;;;-1.20;97.80;;;;;;5110665;28;20027;-86
2023/11/26 10:25:16;;;;;;;38.63;25.08;;;-1.20;97.70;;;;;;5097835;28;20046;-86
2023/11/26 10:27:43;;;;;;;33.45;20.38;;;-1.20;96.90;;;;;;5109876;28;20072;-87
2023/11/26 10:30:11;;;;;;;37.88;20.55;;;-1.20;97.20;;;;;;5122998;28;20082;-87
2023/11/26 10:33:00;;;;;;;34.38;23.70;;;-1.20;97.60;;;;;;5121886;28;20024;-85
2023/11/26 10:35:43;;;;;;;36.67;22.67;;;-1.20;97.80;;;;;;5137896;28;20027;-87
2023/11/26 10:38:11;;;;;;;33.30;19.73;;;-1.20;97.10;;;;;;5136317;28;20051;-83
2023/11/26 10:40:37;;;;;;;32.78;18.50;;;-1.20;97.40;;;;;;5119508;28;20043;-81
2023/11/26 10:43:13;;;;;;;42.88;24.52;;;-1.20;97.20;;;;;;5126387;28;20385;-84
2023/11/26 10:45:42;;;;;;;30.98;19.30;;;-1.30;96.90;;;;;;5110940;28;20036;-85
2023/11/26 10:48:15;;;;;;;37.22;22.88;;;-1.30;97.40;;;;;;5103277;28;20016;-84
2023/11/26 10:51:01;;;;;;;37.80;20.38;;;-1.30;97.40;;;;;;5118272;28;20062;-83
2023/11/26 10:53:31;;;;;;;37.40;22.85;;;-1.30;97.20;;;;;;5121222;28;20054;-83
2023/11/26 10:56:02;;;;;;;37.10;22.65;;;-1.30;97.70;;;;;;5126272;28;20074;-84
2023/11/26 10:58:34;;;;;;;37.58;22.08;;;-1.20;97.90;;;;;;5114800;28;20047;-83
2023/11/26 11:01:00;;;;;;;42.25;21.63;;;-1.20;97.90;;;;;;5114155;28;20023;-82
2023/11/26 11:03:27;;;;;;;25.10;13.88;;;-1.10;97.90;;;;;;5114291;28;20024;-83
2023/11/26 11:05:54;;;;;;;39.75;23.55;;;-1.10;98.00;;;;;;5115082;28;20400;-83
2023/11/26 11:08:20;;;;;;;34.72;24.13;;;-1.00;98.10;;;;;;5114640;28;20106;-84
2023/11/26 11:10:53;;;;;;;37.15;22.30;;;-1.00;98.10;;;;;;5096515;28;20066;-84
2023/11/26 11:13:20;;;;;;;36.90;21.58;;;-1.00;97.90;;;;;;5114465;28;20042;-84
2023/11/26 11:15:49;;;;;;;38.25;23.33;;;-1.00;97.40;;;;;;5115635;28;20023;-85
2023/11/26 11:18:42;;;;;;;41.63;20.90;;;-1.00;97.40;;;;;;5114973;28;20143;-83
2023/11/26 11:21:10;;;;;;;39.38;23.48;;;-1.00;97.10;;;;;;5115655;28;20114;-84
2023/11/26 11:23:46;;;;;;;37.95;20.23;;;-1.00;97.10;;;;;;5122031;28;20094;-85
2023/11/26 11:26:15;;;;;;;37.45;21.10;;;-0.90;97.20;;;;;;5116506;28;20057;-83
2023/11/26 11:29:00;;;;;;;37.97;21.60;;;-0.90;97.10;;;;;;5101117;28;20015;-85
2023/11/26 11:31:47;;;;;;;34.58;20.27;;;-0.90;96.80;;;;;;5092008;28;20122;-85
2023/11/26 11:34:13;;;;;;;33.25;20.30;;;-0.90;96.70;;;;;;5099492;28;20019;-84
2023/11/26 11:36:47;;;;;;;34.38;22.20;;;-1.00;96.50;;;;;;5092509;28;20114;-85
2023/11/26 11:39:14;;;;;;;35.08;19.73;;;-1.00;96.60;;;;;;5090244;28;20024;-86
2023/11/26 11:41:59;;;;;;;;;;;-1.00;96.70;;;;;;5124878;28;20024;-87
2023/11/26 11:44:36;;;;;;;29.85;19.50;;;-1.00;96.70;;;;;;5103200;28;19920;-87
2023/11/26 11:47:07;;;;;;;36.47;22.50;;;-1.10;97.00;;;;;;5126264;28;20139;-86
2023/11/26 11:49:45;;;;;;;30.85;15.52;;;-1.10;97.30;;;;;;5110877;28;20012;-87
2023/11/26 11:52:15;;;;;;;38.03;21.00;;;-1.20;97.70;;;;;;5121138;28;20030;-87
2023/11/26 11:55:03;;;;;;;36.50;20.10;;;-1.20;97.80;;;;;;5116821;28;20125;-88
2023/11/26 11:57:44;;;;;;;37.50;20.02;;;-1.20;97.70;;;;;;5120376;28;20458;-86
2023/11/26 12:00:11;;;;;;;32.88;18.95;;;-1.20;97.60;;;;;;5079045;28;20521;-89
2023/11/26 12:02:42;;;;;;;34.45;20.23;;;-1.30;97.50;;;;;;5075078;28;20034;-88
2023/11/26 12:05:24;;;;;;;32.88;19.88;;;-1.30;97.50;;;;;;5058817;28;20413;-87
2023/11/26 12:07:51;;;;;;;32.83;18.35;;;-1.40;97.60;;;;;;5056374;28;20393;-87
2023/11/26 12:10:32;;;;;;;38.63;20.13;;;-1.40;97.80;;;;;;5054145;28;20051;-86
2023/11/26 12:13:05;;;;;;;34.10;18.95;;;-1.40;97.80;;;;;;5070750;28;20036;-87
2023/11/26 12:15:31;;;;;;;32.20;19.30;;;-1.30;97.70;;;;;;5067035;28;20048;-88
2023/11/26 12:17:59;;;;;;;32.05;20.30;;;-1.40;97.60;;;;;;5046985;28;20056;-85
2023/11/26 12:20:26;;;;;;;33.15;20.40;;;-1.30;97.50;;;;;;5071264;28;20031;-86
2023/11/26 12:22:52;;;;;;;32.70;20.70;;;-1.40;97.50;;;;;;5071132;28;20162;-85
2023/11/26 12:25:24;;;;;;;30.35;20.80;;;-1.30;97.60;;;;;;5053525;28;20028;-84
2023/11/26 12:28:05;;;;;;;31.77;20.20;;;-1.30;97.50;;;;;;5072631;28;20016;-86
2023/11/26 12:30:33;;;;;;;30.65;17.70;;;-1.40;97.30;;;;;;5070630;28;20042;-85
2023/11/26 12:32:59;;;;;;;33.55;21.17;;;-1.40;97.30;;;;;;5100300;28;20513;-84
2023/11/26 12:35:28;;;;;;;37.30;22.38;;;-1.40;97.50;;;;;;5118893;28;20016;-83